Alexis, Illinois
Current Conditions -  °F | °C
As of 11:55 PM on Saturday 20 Dec 2014 (Local Time) from KGBG Reporting Station
Haze Haze  
Wind Chill: 30°   Ceiling: 2300
Heat Index: 34°   Visibility: 5mi
Dew Point: 32°   Wind: 5mph
Humidity: 93%   Direction: 140°SE
Pressure: 30.19"   Gusts: NA
Location:  41.06°N, 90.56°W
Report Text: KGBG 210555Z AUTO 14004KT 5SM BR OVC023 01/00 A3019 RMK AO2 T00100000 10010 20006 400131018
Loading
Personal Weather Stations






























Interactive Weather Map New forecast layout! Learn more

10-Day Weather Forecast

Advertisements
Track Severe Weather on mobile